BLKCAT2 RODN-AFIL
Flight info
| Callsign | BLKCAT2 |
|---|---|
| Flight time | N/A |
| Altitude | 34000 |
| Route | LEXUS A582 ONC Y579 CHAMP/N0458F390 Y579 GUPTI/N0457F380 A586 RUGMA/N0456F390 A586 CJU Y677 LIMDI VFR DCT MISSION AREA |
| Aircraft | P8A/M-SDGIM1RUXYV/S |
Departure
| Time | 2026-04-26 10:43 |
|---|---|
| Airport | Kadena Air Base (RODN) |
Arrival
| Time | N/A |
|---|---|
| Airport | AFIL |
| Time | Latitude | Longitude | Altitude | Speed | Heading |
|---|---|---|---|---|---|
| 2026-04-26 10:26 | 26.35801 | 127.78205 | 86 ft | 0 kts | 313° |
| 2026-04-26 10:38 | 26.35805 | 127.78200 | 86 ft | 4 kts | 313° |
| 2026-04-26 10:39 | 26.35845 | 127.78152 | 87 ft | 13 kts | 313° |
| 2026-04-26 10:39 | 26.35930 | 127.78122 | 87 ft | 15 kts | 30° |
| 2026-04-26 10:39 | 26.36006 | 127.78196 | 87 ft | 14 kts | 43° |
| 2026-04-26 10:39 | 26.36076 | 127.78271 | 86 ft | 14 kts | 45° |
| 2026-04-26 10:40 | 26.36142 | 127.78344 | 86 ft | 13 kts | 45° |
| 2026-04-26 10:40 | 26.36205 | 127.78414 | 86 ft | 13 kts | 45° |
| 2026-04-26 10:40 | 26.36273 | 127.78473 | 86 ft | 12 kts | 13° |
| 2026-04-26 10:40 | 26.36347 | 127.78435 | 86 ft | 12 kts | 322° |
| 2026-04-26 10:41 | 26.36413 | 127.78378 | 91 ft | 12 kts | 322° |
| 2026-04-26 10:41 | 26.36476 | 127.78323 | 88 ft | 11 kts | 321° |
| 2026-04-26 10:41 | 26.36538 | 127.78268 | 88 ft | 11 kts | 321° |
| 2026-04-26 10:41 | 26.36587 | 127.78204 | 85 ft | 11 kts | 301° |
| 2026-04-26 10:42 | 26.36626 | 127.78133 | 87 ft | 11 kts | 301° |
| 2026-04-26 10:42 | 26.36663 | 127.78065 | 84 ft | 10 kts | 301° |
| 2026-04-26 10:42 | 26.36689 | 127.77996 | 83 ft | 9 kts | 263° |
| 2026-04-26 10:42 | 26.36655 | 127.77938 | 80 ft | 10 kts | 232° |
| 2026-04-26 10:43 | 26.36501 | 127.77723 | 81 ft | 74 kts | 231° |
| 2026-04-26 10:43 | 26.36012 | 127.77051 | 78 ft | 147 kts | 231° |
| 2026-04-26 10:43 | 26.35262 | 127.76016 | 391 ft | 181 kts | 233° |
| 2026-04-26 10:43 | 26.34563 | 127.74836 | 1219 ft | 188 kts | 255° |
| 2026-04-26 10:44 | 26.34511 | 127.73416 | 2172 ft | 189 kts | 287° |
| 2026-04-26 10:44 | 26.35259 | 127.72146 | 2444 ft | 215 kts | 323° |
| 2026-04-26 10:44 | 26.36717 | 127.71635 | 2728 ft | 233 kts | 0° |
| 2026-04-26 10:44 | 26.38329 | 127.72226 | 2951 ft | 259 kts | 31° |
| 2026-04-26 10:45 | 26.39782 | 127.73503 | 3547 ft | 271 kts | 39° |
| 2026-04-26 10:45 | 26.41190 | 127.74929 | 4303 ft | 275 kts | 40° |
| 2026-04-26 10:45 | 26.42607 | 127.76387 | 5043 ft | 280 kts | 40° |
| 2026-04-26 10:45 | 26.44060 | 127.77864 | 5741 ft | 285 kts | 40° |
| 2026-04-26 10:46 | 26.45530 | 127.79339 | 6420 ft | 291 kts | 39° |
| 2026-04-26 10:46 | 26.47079 | 127.80874 | 7090 ft | 295 kts | 39° |
| 2026-04-26 10:46 | 26.48631 | 127.82398 | 7802 ft | 298 kts | 39° |
| 2026-04-26 10:46 | 26.50205 | 127.83934 | 8491 ft | 303 kts | 38° |
| 2026-04-26 10:47 | 26.51805 | 127.85489 | 9174 ft | 307 kts | 38° |
| 2026-04-26 10:47 | 26.53426 | 127.87058 | 9878 ft | 310 kts | 38° |
| 2026-04-26 10:47 | 26.55076 | 127.88654 | 10387 ft | 321 kts | 38° |
| 2026-04-26 10:47 | 26.56831 | 127.90344 | 10537 ft | 343 kts | 38° |
| 2026-04-26 10:48 | 26.58697 | 127.92140 | 10705 ft | 364 kts | 38° |
| 2026-04-26 10:48 | 26.61821 | 127.95152 | 11038 ft | 391 kts | 38° |
| 2026-04-26 10:48 | 26.68108 | 128.01233 | 12505 ft | 408 kts | 38° |
| 2026-04-26 10:49 | 26.76718 | 128.09575 | 14590 ft | 421 kts | 38° |
| 2026-04-26 10:49 | 26.85693 | 128.18281 | 16458 ft | 434 kts | 37° |
| 2026-04-26 10:49 | 26.94957 | 128.27289 | 18164 ft | 448 kts | 37° |
| 2026-04-26 10:49 | 27.04628 | 128.36458 | 19568 ft | 460 kts | 34° |
| 2026-04-26 10:50 | 27.14991 | 128.45253 | 20912 ft | 473 kts | 33° |
| 2026-04-26 10:50 | 27.17111 | 128.47064 | 21177 ft | 475 kts | 33° |
| 2026-04-26 10:50 | 27.20897 | 128.49537 | 21556 ft | 467 kts | 12° |
| 2026-04-26 10:50 | 27.24042 | 128.50188 | 21908 ft | 454 kts | 355° |
| 2026-04-26 10:51 | 27.28331 | 128.49735 | 22363 ft | 444 kts | 341° |
| 2026-04-26 10:51 | 27.53131 | 128.44759 | 24544 ft | 464 kts | 342° |
| 2026-04-26 10:51 | 27.65960 | 128.42292 | 25454 ft | 472 kts | 342° |
| 2026-04-26 10:52 | 27.79019 | 128.39752 | 26304 ft | 480 kts | 342° |
| 2026-04-26 10:52 | 27.92262 | 128.37173 | 27091 ft | 487 kts | 342° |
| 2026-04-26 10:52 | 28.05747 | 128.34541 | 27836 ft | 494 kts | 342° |
| 2026-04-26 10:52 | 28.19309 | 128.31894 | 28869 ft | 494 kts | 342° |
| 2026-04-26 10:53 | 28.32908 | 128.29226 | 29851 ft | 496 kts | 341° |
| 2026-04-26 10:53 | 28.46462 | 128.26562 | 30907 ft | 493 kts | 341° |
| 2026-04-26 10:53 | 28.59965 | 128.23899 | 31907 ft | 491 kts | 340° |
| 2026-04-26 10:54 | 28.86767 | 128.18590 | 33901 ft | 486 kts | 340° |
| 2026-04-26 10:54 | 29.00162 | 128.15920 | 34108 ft | 493 kts | 340° |
| 2026-04-26 10:54 | 29.25854 | 128.06641 | 33969 ft | 481 kts | 331° |
| 2026-04-26 10:55 | 29.50839 | 127.97274 | 33967 ft | 467 kts | 330° |
| 2026-04-26 10:55 | 29.71366 | 127.89472 | 34010 ft | 463 kts | 330° |
| 2026-04-26 10:56 | 30.00615 | 127.79043 | 34034 ft | 486 kts | 333° |
| 2026-04-26 10:56 | 30.26705 | 127.70665 | 33956 ft | 484 kts | 332° |
| 2026-04-26 10:57 | 30.52302 | 127.62296 | 33954 ft | 470 kts | 332° |
| 2026-04-26 10:57 | 30.77239 | 127.54061 | 33999 ft | 467 kts | 331° |
| 2026-04-26 10:58 | 31.02675 | 127.45625 | 34023 ft | 484 kts | 331° |
| 2026-04-26 10:58 | 31.28765 | 127.36954 | 33954 ft | 487 kts | 330° |
| 2026-04-26 10:59 | 31.54634 | 127.28467 | 33961 ft | 477 kts | 330° |
| 2026-04-26 10:59 | 31.80141 | 127.20004 | 34015 ft | 478 kts | 330° |
| 2026-04-26 11:00 | 32.06162 | 127.11343 | 34033 ft | 491 kts | 331° |
| 2026-04-26 11:00 | 32.32329 | 127.02548 | 33965 ft | 484 kts | 332° |
| 2026-04-26 11:01 | 32.57743 | 126.93789 | 33974 ft | 465 kts | 330° |
| 2026-04-26 11:01 | 32.82368 | 126.84122 | 33992 ft | 470 kts | 331° |
| 2026-04-26 11:02 | 33.07602 | 126.74361 | 33993 ft | 480 kts | 331° |
| 2026-04-26 11:02 | 33.31858 | 126.64677 | 33983 ft | 471 kts | 331° |
| 2026-04-26 11:03 | 33.49746 | 126.57423 | 33981 ft | 459 kts | 332° |
| 2026-04-26 11:03 | 33.55559 | 126.54480 | 33990 ft | 443 kts | 315° |
| 2026-04-26 11:04 | 33.60184 | 126.49727 | 34008 ft | 438 kts | 308° |
| 2026-04-26 11:04 | 33.64530 | 126.44726 | 33527 ft | 426 kts | 308° |
| 2026-04-26 11:05 | 33.66612 | 126.42192 | 32722 ft | 424 kts | 302° |
| 2026-04-26 11:05 | 33.68138 | 126.39212 | 31706 ft | 419 kts | 286° |
| 2026-04-26 11:05 | 33.68808 | 126.35824 | 30673 ft | 419 kts | 270° |
| 2026-04-26 11:05 | 33.68561 | 126.32326 | 29536 ft | 425 kts | 254° |
| 2026-04-26 11:06 | 33.67929 | 126.30090 | 28788 ft | 429 kts | 247° |
| 2026-04-26 11:06 | 33.66668 | 126.26830 | 27775 ft | 433 kts | 244° |
| 2026-04-26 11:06 | 33.65294 | 126.23597 | 26805 ft | 436 kts | 243° |
| 2026-04-26 11:06 | 33.63417 | 126.19304 | 25519 ft | 440 kts | 242° |
| 2026-04-26 11:07 | 33.62453 | 126.17112 | 25007 ft | 439 kts | 242° |
| 2026-04-26 11:07 | 33.60576 | 126.12857 | 24243 ft | 432 kts | 242° |
| 2026-04-26 11:07 | 33.59630 | 126.10714 | 23855 ft | 428 kts | 242° |
| 2026-04-26 11:07 | 33.58305 | 126.07536 | 23139 ft | 425 kts | 248° |
| 2026-04-26 11:08 | 33.57437 | 126.04169 | 22349 ft | 420 kts | 255° |
| 2026-04-26 11:08 | 33.56760 | 126.00776 | 21426 ft | 416 kts | 256° |
| 2026-04-26 11:08 | 33.56131 | 125.97393 | 20462 ft | 414 kts | 257° |
| 2026-04-26 11:08 | 33.55515 | 125.94034 | 19547 ft | 411 kts | 257° |
| 2026-04-26 11:09 | 33.53797 | 125.84289 | 16976 ft | 401 kts | 260° |
| 2026-04-26 11:09 | 33.52320 | 125.71274 | 13582 ft | 390 kts | 262° |
| 2026-04-26 11:09 | 33.51002 | 125.58561 | 10397 ft | 375 kts | 262° |
| 2026-04-26 11:09 | 33.49741 | 125.46346 | 7239 ft | 366 kts | 262° |
| 2026-04-26 11:10 | 33.48505 | 125.34397 | 4251 ft | 355 kts | 262° |
| 2026-04-26 11:10 | 33.47839 | 125.28117 | 2784 ft | 346 kts | 262° |
| 2026-04-26 11:10 | 33.47533 | 125.25284 | 2275 ft | 341 kts | 262° |
| 2026-04-26 11:10 | 33.47231 | 125.22470 | 2103 ft | 334 kts | 262° |
| 2026-04-26 11:11 | 33.46943 | 125.19764 | 2017 ft | 319 kts | 262° |
| 2026-04-26 11:11 | 33.46688 | 125.17186 | 1998 ft | 303 kts | 266° |
| 2026-04-26 11:11 | 33.46984 | 125.14769 | 2002 ft | 288 kts | 292° |
| 2026-04-26 11:11 | 33.48087 | 125.12867 | 2006 ft | 272 kts | 320° |
| 2026-04-26 11:12 | 33.49705 | 125.11857 | 2003 ft | 256 kts | 347° |
| 2026-04-26 11:12 | 33.51424 | 125.11450 | 2020 ft | 251 kts | 352° |
| 2026-04-26 11:12 | 33.53140 | 125.11112 | 2016 ft | 250 kts | 352° |
| 2026-04-26 11:12 | 33.54851 | 125.10780 | 2014 ft | 248 kts | 352° |
| 2026-04-26 11:13 | 33.56552 | 125.10452 | 2012 ft | 247 kts | 352° |
| 2026-04-26 11:13 | 33.58248 | 125.10124 | 2014 ft | 246 kts | 352° |
| 2026-04-26 11:13 | 33.59936 | 125.09799 | 2019 ft | 246 kts | 353° |
| 2026-04-26 11:13 | 33.61630 | 125.09517 | 2020 ft | 246 kts | 354° |
| 2026-04-26 11:14 | 33.63304 | 125.09254 | 2022 ft | 246 kts | 354° |
| 2026-04-26 11:14 | 33.65005 | 125.08991 | 2021 ft | 247 kts | 354° |
| 2026-04-26 11:14 | 33.66712 | 125.08745 | 2017 ft | 247 kts | 359° |
| 2026-04-26 11:14 | 33.68363 | 125.09143 | 2017 ft | 242 kts | 30° |
| 2026-04-26 11:15 | 33.69580 | 125.10489 | 2012 ft | 239 kts | 61° |
| 2026-04-26 11:15 | 33.70077 | 125.12371 | 2027 ft | 238 kts | 82° |
| 2026-04-26 11:15 | 33.70287 | 125.14358 | 2019 ft | 240 kts | 83° |
| 2026-04-26 11:15 | 33.70495 | 125.16351 | 2024 ft | 241 kts | 83° |
| 2026-04-26 11:16 | 33.70720 | 125.18349 | 2012 ft | 242 kts | 82° |
| 2026-04-26 11:16 | 33.70951 | 125.20361 | 2009 ft | 243 kts | 82° |
| 2026-04-26 11:16 | 33.70910 | 125.22371 | 1998 ft | 243 kts | 107° |
| 2026-04-26 11:16 | 33.70039 | 125.24076 | 2011 ft | 243 kts | 137° |
| 2026-04-26 11:17 | 33.68548 | 125.25005 | 2016 ft | 245 kts | 166° |
| 2026-04-26 11:17 | 33.66859 | 125.25326 | 2021 ft | 246 kts | 171° |
| 2026-04-26 11:17 | 33.65153 | 125.25570 | 2011 ft | 248 kts | 172° |
| 2026-04-26 11:17 | 33.63460 | 125.25824 | 2012 ft | 248 kts | 171° |
| 2026-04-26 11:18 | 33.61744 | 125.26089 | 2017 ft | 248 kts | 171° |
| 2026-04-26 11:18 | 33.60032 | 125.26357 | 2010 ft | 248 kts | 171° |
| 2026-04-26 11:18 | 33.58318 | 125.26625 | 2012 ft | 248 kts | 171° |
| 2026-04-26 11:18 | 33.54904 | 125.29464 | 1976 ft | 243 kts | 104° |
| 2026-04-26 11:19 | 33.55972 | 125.40045 | 2049 ft | 241 kts | 82° |
| 2026-04-26 11:19 | 33.56910 | 125.48069 | 2014 ft | 244 kts | 82° |
| 2026-04-26 11:19 | 33.57858 | 125.56117 | 2012 ft | 244 kts | 82° |
| 2026-04-26 11:19 | 33.58816 | 125.64212 | 1999 ft | 244 kts | 82° |
| 2026-04-26 11:20 | 33.59772 | 125.72275 | 2010 ft | 245 kts | 82° |
| 2026-04-26 11:20 | 33.59990 | 125.77654 | 2014 ft | 244 kts | 95° |
| 2026-04-26 11:20 | 33.59443 | 125.88523 | 2022 ft | 244 kts | 94° |
| 2026-04-26 11:20 | 33.59086 | 125.96675 | 1997 ft | 246 kts | 93° |
| 2026-04-26 11:21 | 33.58734 | 126.04856 | 1998 ft | 245 kts | 93° |
| 2026-04-26 11:21 | 33.58398 | 126.13036 | 2004 ft | 245 kts | 93° |
| 2026-04-26 11:21 | 33.58083 | 126.21217 | 1988 ft | 246 kts | 93° |
| 2026-04-26 11:21 | 33.57907 | 126.24560 | 1995 ft | 244 kts | 100° |
| 2026-04-26 11:22 | 33.57609 | 126.26540 | 1990 ft | 238 kts | 102° |
| 2026-04-26 11:22 | 33.56991 | 126.30241 | 1955 ft | 225 kts | 102° |
| 2026-04-26 11:22 | 33.56612 | 126.32488 | 1972 ft | 221 kts | 102° |
| 2026-04-26 11:22 | 33.56309 | 126.34280 | 1993 ft | 219 kts | 102° |
| 2026-04-26 11:23 | 33.56009 | 126.36071 | 2002 ft | 220 kts | 102° |
| 2026-04-26 11:23 | 33.55706 | 126.37873 | 2007 ft | 221 kts | 102° |
| 2026-04-26 11:23 | 33.55406 | 126.39659 | 2018 ft | 214 kts | 102° |
| 2026-04-26 11:23 | 33.55119 | 126.41364 | 1997 ft | 206 kts | 102° |
| 2026-04-26 11:24 | 33.54842 | 126.43031 | 1996 ft | 200 kts | 100° |
| 2026-04-26 11:24 | 33.54984 | 126.44631 | 1997 ft | 196 kts | 65° |
| 2026-04-26 11:24 | 33.55691 | 126.46037 | 2016 ft | 198 kts | 58° |
| 2026-04-26 11:24 | 33.56458 | 126.47405 | 2018 ft | 196 kts | 57° |
| 2026-04-26 11:25 | 33.57213 | 126.48733 | 2007 ft | 192 kts | 57° |
| 2026-04-26 11:25 | 33.57963 | 126.50047 | 2002 ft | 187 kts | 57° |
| 2026-04-26 11:25 | 33.58683 | 126.51314 | 1931 ft | 187 kts | 57° |
| 2026-04-26 11:25 | 33.59424 | 126.52618 | 1752 ft | 189 kts | 58° |
| 2026-04-26 11:26 | 33.59846 | 126.54064 | 1520 ft | 184 kts | 94° |
| 2026-04-26 11:26 | 33.59403 | 126.55433 | 1365 ft | 178 kts | 135° |
| 2026-04-26 11:26 | 33.58418 | 126.56331 | 1266 ft | 180 kts | 146° |
| 2026-04-26 11:26 | 33.57353 | 126.57162 | 1132 ft | 186 kts | 152° |
| 2026-04-26 11:27 | 33.56102 | 126.57460 | 962 ft | 185 kts | 193° |
| 2026-04-26 11:27 | 33.55069 | 126.56759 | 813 ft | 165 kts | 233° |
| 2026-04-26 11:27 | 33.54448 | 126.55705 | 750 ft | 146 kts | 239° |
| 2026-04-26 11:27 | 33.53976 | 126.54633 | 659 ft | 146 kts | 243° |
| 2026-04-26 11:28 | 33.53452 | 126.53598 | 539 ft | 144 kts | 239° |
| 2026-04-26 11:28 | 33.52921 | 126.52566 | 461 ft | 146 kts | 239° |
| 2026-04-26 11:28 | 33.52392 | 126.51522 | 331 ft | 145 kts | 239° |
| 2026-04-26 11:28 | 33.51855 | 126.50473 | 222 ft | 148 kts | 239° |
| 2026-04-26 11:29 | 33.51321 | 126.49434 | 103 ft | 146 kts | 239° |
| 2026-04-26 11:29 | 33.50841 | 126.48497 | 93 ft | 123 kts | 238° |
| 2026-04-26 11:29 | 33.50286 | 126.47420 | 194 ft | 175 kts | 239° |
| 2026-04-26 11:29 | 33.49610 | 126.46088 | 847 ft | 195 kts | 239° |
| 2026-04-26 11:30 | 33.48865 | 126.44676 | 1420 ft | 204 kts | 238° |
| 2026-04-26 11:30 | 33.48361 | 126.43720 | 1652 ft | 206 kts | 238° |
| 2026-04-26 11:30 | 33.47344 | 126.41736 | 1987 ft | 216 kts | 238° |
| 2026-04-26 11:30 | 33.46659 | 126.40086 | 1984 ft | 226 kts | 257° |
| 2026-04-26 11:31 | 33.46735 | 126.38212 | 1990 ft | 230 kts | 290° |
| 2026-04-26 11:31 | 33.47654 | 126.36685 | 2010 ft | 228 kts | 323° |
| 2026-04-26 11:31 | 33.48975 | 126.35626 | 2017 ft | 229 kts | 321° |
| 2026-04-26 11:31 | 33.50300 | 126.34469 | 2034 ft | 246 kts | 325° |
| 2026-04-26 11:32 | 33.51764 | 126.33295 | 2019 ft | 256 kts | 326° |
| 2026-04-26 11:32 | 33.53287 | 126.32084 | 2037 ft | 280 kts | 326° |
| 2026-04-26 11:32 | 33.54950 | 126.30765 | 2014 ft | 289 kts | 326° |
| 2026-04-26 11:32 | 33.56633 | 126.29431 | 2010 ft | 291 kts | 326° |
| 2026-04-26 11:33 | 33.58324 | 126.28089 | 1996 ft | 291 kts | 326° |
| 2026-04-26 11:33 | 33.60012 | 126.26747 | 1988 ft | 291 kts | 326° |
| 2026-04-26 11:33 | 33.61697 | 126.25407 | 1987 ft | 290 kts | 326° |
| 2026-04-26 11:33 | 33.63381 | 126.24066 | 1995 ft | 290 kts | 326° |
| 2026-04-26 11:34 | 33.65068 | 126.22721 | 1990 ft | 290 kts | 326° |
| 2026-04-26 11:34 | 33.66747 | 126.21379 | 1995 ft | 290 kts | 326° |
| 2026-04-26 11:34 | 33.68428 | 126.20032 | 1997 ft | 290 kts | 326° |
| 2026-04-26 11:34 | 33.70106 | 126.18682 | 2005 ft | 290 kts | 326° |
| 2026-04-26 11:35 | 33.71784 | 126.17328 | 2005 ft | 291 kts | 326° |
| 2026-04-26 11:35 | 33.73465 | 126.15969 | 2004 ft | 291 kts | 326° |
| 2026-04-26 11:35 | 33.75125 | 126.14623 | 2001 ft | 292 kts | 326° |
| 2026-04-26 11:35 | 33.76261 | 126.13700 | 2011 ft | 292 kts | 326° |
| 2026-04-26 11:36 | 33.78487 | 126.11890 | 2000 ft | 292 kts | 326° |
| 2026-04-26 11:36 | 33.80168 | 126.10518 | 2008 ft | 292 kts | 326° |
| 2026-04-26 11:36 | 33.81844 | 126.09146 | 2000 ft | 292 kts | 326° |
| 2026-04-26 11:36 | 33.83523 | 126.07770 | 2008 ft | 292 kts | 326° |
| 2026-04-26 11:37 | 33.85201 | 126.06390 | 2006 ft | 292 kts | 326° |
| 2026-04-26 11:37 | 33.86874 | 126.05013 | 2015 ft | 291 kts | 326° |
| 2026-04-26 11:37 | 33.88549 | 126.03631 | 2001 ft | 292 kts | 326° |
| 2026-04-26 11:37 | 33.90220 | 126.02250 | 2020 ft | 291 kts | 326° |
| 2026-04-26 11:38 | 33.91888 | 126.00867 | 2004 ft | 291 kts | 326° |
| 2026-04-26 11:38 | 33.93553 | 125.99483 | 2004 ft | 291 kts | 326° |
| 2026-04-26 11:38 | 33.95222 | 125.98093 | 2015 ft | 291 kts | 326° |
| 2026-04-26 11:38 | 33.96886 | 125.96708 | 2007 ft | 291 kts | 326° |
| 2026-04-26 11:39 | 33.98547 | 125.95326 | 2012 ft | 290 kts | 326° |
| 2026-04-26 11:39 | 34.00188 | 125.93960 | 2007 ft | 289 kts | 326° |
| 2026-04-26 11:39 | 34.01843 | 125.92580 | 2011 ft | 289 kts | 326° |
| 2026-04-26 11:39 | 34.03494 | 125.91201 | 2019 ft | 289 kts | 326° |
| 2026-04-26 11:40 | 34.05156 | 125.89812 | 2004 ft | 289 kts | 326° |
| 2026-04-26 11:40 | 34.06808 | 125.88433 | 2013 ft | 289 kts | 326° |
| 2026-04-26 11:40 | 34.08465 | 125.87051 | 2007 ft | 289 kts | 326° |
| 2026-04-26 11:40 | 34.10118 | 125.85673 | 2012 ft | 289 kts | 326° |
| 2026-04-26 11:41 | 34.11772 | 125.84294 | 2012 ft | 288 kts | 326° |
| 2026-04-26 11:42 | 34.23317 | 125.74685 | 2017 ft | 287 kts | 326° |
| 2026-04-26 11:43 | 34.24937 | 125.73338 | 2012 ft | 287 kts | 326° |
| 2026-04-26 11:43 | 34.26585 | 125.71968 | 2010 ft | 287 kts | 326° |
| 2026-04-26 11:43 | 34.28230 | 125.70602 | 2009 ft | 287 kts | 326° |
| 2026-04-26 11:43 | 34.29876 | 125.69236 | 2013 ft | 287 kts | 326° |
| 2026-04-26 11:44 | 34.31525 | 125.67867 | 2009 ft | 286 kts | 326° |
| 2026-04-26 11:44 | 34.33170 | 125.66502 | 2010 ft | 286 kts | 326° |
| 2026-04-26 11:44 | 34.34812 | 125.65140 | 2008 ft | 286 kts | 326° |
| 2026-04-26 11:44 | 34.36454 | 125.63778 | 2015 ft | 286 kts | 326° |
| 2026-04-26 11:45 | 34.38097 | 125.62415 | 2015 ft | 287 kts | 326° |
| 2026-04-26 11:45 | 34.39745 | 125.61048 | 2013 ft | 287 kts | 326° |
| 2026-04-26 11:45 | 34.41392 | 125.59683 | 2009 ft | 287 kts | 326° |
| 2026-04-26 11:45 | 34.43021 | 125.58333 | 2011 ft | 287 kts | 326° |
| 2026-04-26 11:46 | 34.44668 | 125.56967 | 2011 ft | 287 kts | 326° |
| 2026-04-26 11:46 | 34.46313 | 125.55601 | 2012 ft | 287 kts | 326° |
| 2026-04-26 11:46 | 34.47957 | 125.54236 | 2012 ft | 287 kts | 326° |
| 2026-04-26 11:46 | 34.49605 | 125.52867 | 2011 ft | 287 kts | 326° |
| 2026-04-26 11:47 | 34.51251 | 125.51498 | 2013 ft | 287 kts | 326° |
| 2026-04-26 11:47 | 34.52899 | 125.50127 | 2013 ft | 286 kts | 326° |
| 2026-04-26 11:47 | 34.54596 | 125.48861 | 2004 ft | 286 kts | 338° |
| 2026-04-26 11:47 | 34.56516 | 125.48275 | 2022 ft | 285 kts | 350° |
| 2026-04-26 11:48 | 34.58478 | 125.47897 | 2011 ft | 285 kts | 352° |
| 2026-04-26 11:48 | 34.60442 | 125.47545 | 2012 ft | 286 kts | 352° |
| 2026-04-26 11:48 | 34.62412 | 125.47231 | 2007 ft | 286 kts | 358° |
| 2026-04-26 11:48 | 34.64352 | 125.47649 | 2012 ft | 285 kts | 24° |
| 2026-04-26 11:49 | 34.65929 | 125.49080 | 2019 ft | 286 kts | 50° |
| 2026-04-26 11:49 | 34.66818 | 125.51218 | 2022 ft | 287 kts | 75° |
| 2026-04-26 11:49 | 34.67170 | 125.53578 | 2021 ft | 288 kts | 81° |
| 2026-04-26 11:49 | 34.67439 | 125.55990 | 2014 ft | 289 kts | 82° |
| 2026-04-26 11:50 | 34.67698 | 125.58409 | 2011 ft | 289 kts | 82° |
| 2026-04-26 11:50 | 34.67952 | 125.60831 | 2016 ft | 289 kts | 82° |
| 2026-04-26 11:50 | 34.68204 | 125.63256 | 2015 ft | 289 kts | 82° |
| 2026-04-26 11:50 | 34.68455 | 125.65684 | 2011 ft | 289 kts | 82° |
| 2026-04-26 11:51 | 34.68620 | 125.67285 | 2007 ft | 289 kts | 82° |
| 2026-04-26 11:51 | 34.68871 | 125.69737 | 2004 ft | 288 kts | 82° |
| 2026-04-26 11:51 | 34.69114 | 125.72124 | 2017 ft | 288 kts | 82° |
| 2026-04-26 11:51 | 34.69362 | 125.74544 | 2015 ft | 288 kts | 82° |
| 2026-04-26 11:52 | 34.69611 | 125.76964 | 2012 ft | 288 kts | 82° |
| 2026-04-26 11:52 | 34.69860 | 125.79381 | 2010 ft | 288 kts | 82° |
| 2026-04-26 11:52 | 34.70110 | 125.81800 | 2010 ft | 288 kts | 82° |
| 2026-04-26 11:52 | 34.70309 | 125.84221 | 2007 ft | 289 kts | 90° |
| 2026-04-26 11:53 | 34.69837 | 125.86582 | 2012 ft | 290 kts | 117° |
| 2026-04-26 11:53 | 34.68549 | 125.88451 | 2019 ft | 291 kts | 143° |
| 2026-04-26 11:53 | 34.66708 | 125.89446 | 2017 ft | 292 kts | 169° |
| 2026-04-26 11:54 | 34.62902 | 125.88223 | 2020 ft | 292 kts | 222° |
| 2026-04-26 11:54 | 34.61710 | 125.86256 | 2016 ft | 291 kts | 248° |
| 2026-04-26 11:54 | 34.61195 | 125.83885 | 2028 ft | 291 kts | 260° |
| 2026-04-26 11:54 | 34.60853 | 125.81463 | 2010 ft | 292 kts | 262° |
| 2026-04-26 11:55 | 34.60530 | 125.79023 | 2005 ft | 292 kts | 262° |
| 2026-04-26 11:55 | 34.60211 | 125.76590 | 2004 ft | 291 kts | 262° |
| 2026-04-26 11:55 | 34.59896 | 125.74168 | 2004 ft | 291 kts | 262° |
| 2026-04-26 11:55 | 34.59582 | 125.71744 | 2014 ft | 290 kts | 262° |